createdAt,value
2022-11-16T00:02:10.045Z,99923.34
2022-11-16T00:05:12.590Z,99911.13
2022-11-16T00:08:14.753Z,99917.19
2022-11-16T00:11:20.400Z,99911.19
2022-11-16T00:14:23.950Z,99907.63
2022-11-16T00:17:26.850Z,99900.84
2022-11-16T00:20:29.019Z,99907.97
2022-11-16T00:23:31.854Z,99896.75
2022-11-16T00:26:34.137Z,99899.22
2022-11-16T00:29:36.706Z,99894.91
2022-11-16T00:32:38.913Z,99893.28
2022-11-16T00:35:41.862Z,99884.53
2022-11-16T00:38:44.227Z,99887.06
2022-11-16T00:41:48.424Z,99874.84
2022-11-16T00:44:50.579Z,99879.28
2022-11-16T00:47:57.701Z,99861.19
2022-11-16T00:51:02.646Z,99863.78
2022-11-16T00:54:06.615Z,99863.78
2022-11-16T00:57:09.306Z,99857.47
2022-11-16T01:00:12.268Z,99852.38
2022-11-16T01:03:14.740Z,99844.81
2022-11-16T01:06:17.568Z,99850.06
2022-11-16T01:09:20.033Z,99848.97
2022-11-16T01:12:23.242Z,99842.28
2022-11-16T01:15:26.803Z,99840.47
2022-11-16T01:18:29.789Z,99830.28
2022-11-16T01:21:32.055Z,99823.34
2022-11-16T01:24:34.726Z,99822.22
2022-11-16T01:27:37.334Z,99818.06
2022-11-16T01:30:40.345Z,99815.47
2022-11-16T01:33:42.812Z,99819.41
2022-11-16T01:36:47.738Z,99815.91
2022-11-16T01:39:53.182Z,99813.16
2022-11-16T01:42:56.083Z,99806.34
2022-11-16T01:45:58.624Z,99798.66
2022-11-16T01:49:06.877Z,99791.91
2022-11-16T01:52:11.266Z,99788.75
2022-11-16T01:55:14.147Z,99779.25
2022-11-16T01:58:19.761Z,99774.16
2022-11-16T02:01:24.119Z,99771.34
2022-11-16T02:04:27.058Z,99770.63
2022-11-16T02:07:58.794Z,99766.41
2022-11-16T02:11:04.361Z,99775.97
2022-11-16T02:14:06.864Z,99761.34
2022-11-16T02:17:09.509Z,99757.84
2022-11-16T02:20:14.948Z,99758.78
2022-11-16T02:23:17.479Z,99758.78
2022-11-16T02:26:44.046Z,99749.00
2022-11-16T02:29:56.656Z,99747.78
2022-11-16T02:33:04.399Z,99747.00
2022-11-16T02:36:10.830Z,99736.63
2022-11-16T02:39:16.908Z,99728.28
2022-11-16T02:42:22.127Z,99728.84
2022-11-16T02:45:25.825Z,99729.88
2022-11-16T02:48:35.704Z,99721.97
2022-11-16T02:51:39.954Z,99708.28
2022-11-16T02:54:42.502Z,99713.72
2022-11-16T02:57:53.619Z,99714.56
2022-11-16T03:01:01.170Z,99710.13
2022-11-16T03:04:08.666Z,99698.75
2022-11-16T03:07:14.373Z,99699.69
2022-11-16T03:10:37.702Z,99699.69
2022-11-16T03:13:41.230Z,99696.28
2022-11-16T03:16:48.238Z,99695.53
2022-11-16T03:20:09.426Z,99690.34
2022-11-16T03:23:13.884Z,99696.19
2022-11-16T03:26:19.191Z,99693.28
2022-11-16T03:29:33.013Z,99691.62
2022-11-16T03:32:58.692Z,99686.69
2022-11-16T03:36:11.476Z,99678.81
2022-11-16T03:39:22.681Z,99675.28
2022-11-16T03:42:26.208Z,99678.53
2022-11-16T03:45:30.063Z,99677.81
2022-11-16T03:48:36.678Z,99669.31
2022-11-16T03:51:41.222Z,99658.69
2022-11-16T03:54:43.519Z,99662.22
2022-11-16T03:57:46.679Z,99654.47
2022-11-16T04:00:49.117Z,99660.63
2022-11-16T04:03:51.633Z,99649.59
2022-11-16T04:07:13.181Z,99646.12
2022-11-16T04:10:34.511Z,99645.09
2022-11-16T04:13:55.270Z,99638.84
2022-11-16T04:17:16.796Z,99634.53
2022-11-16T04:20:37.598Z,99627.59
2022-11-16T04:23:58.985Z,99622.38
2022-11-16T04:27:21.342Z,99621.50
2022-11-16T04:30:24.234Z,99621.19
2022-11-16T04:33:45.262Z,99617.94
2022-11-16T04:37:06.600Z,99618.94
2022-11-16T04:40:09.436Z,99622.44
2022-11-16T04:43:11.982Z,99614.75
2022-11-16T04:46:32.897Z,99614.69
2022-11-16T04:49:35.424Z,99609.53
2022-11-16T04:52:37.728Z,99604.31
2022-11-16T04:55:40.384Z,99608.62
2022-11-16T04:58:43.994Z,99602.72
2022-11-16T05:02:05.170Z,99602.41
2022-11-16T05:05:07.891Z,99602.44
2022-11-16T05:08:11.831Z,99604.16
2022-11-16T05:11:14.106Z,99611.00
2022-11-16T05:14:16.877Z,99604.84
2022-11-16T05:17:19.304Z,99607.59
2022-11-16T05:20:41.971Z,99598.13
2022-11-16T05:24:03.316Z,99599.00
2022-11-16T05:27:07.930Z,99598.06
2022-11-16T05:30:11.335Z,99594.16
2022-11-16T05:33:16.472Z,99587.16
2022-11-16T05:36:18.830Z,99587.78
2022-11-16T05:39:21.736Z,99573.81
2022-11-16T05:42:25.417Z,99581.03
2022-11-16T05:45:28.247Z,99571.66
2022-11-16T05:48:31.698Z,99567.84
2022-11-16T05:51:38.951Z,99574.25
2022-11-16T05:54:42.173Z,99564.72
2022-11-16T05:57:44.808Z,99557.59
2022-11-16T06:00:47.281Z,99555.94
2022-11-16T06:03:51.078Z,99557.81
2022-11-16T06:06:53.684Z,99550.84
2022-11-16T06:09:56.505Z,99552.50
2022-11-16T06:12:59.861Z,99549.19
2022-11-16T06:16:03.178Z,99545.56
2022-11-16T06:19:05.952Z,99546.25
2022-11-16T06:22:08.646Z,99546.09
2022-11-16T06:25:11.015Z,99552.22
2022-11-16T06:28:13.764Z,99556.34
2022-11-16T06:31:16.527Z,99554.13
2022-11-16T06:34:19.774Z,99564.47
2022-11-16T06:37:21.980Z,99553.91
2022-11-16T06:40:24.978Z,99559.19
2022-11-16T06:43:27.371Z,99553.19
2022-11-16T06:46:30.268Z,99556.28
2022-11-16T06:49:32.600Z,99538.16
2022-11-16T06:52:35.667Z,99538.16
2022-11-16T06:55:38.464Z,99537.38
2022-11-16T06:58:42.895Z,99541.81
2022-11-16T07:01:45.634Z,99538.34
2022-11-16T07:04:48.677Z,99521.59
2022-11-16T07:07:55.334Z,99529.16
2022-11-16T07:11:04.128Z,99532.75
2022-11-16T07:14:08.407Z,99524.09
2022-11-16T07:17:11.907Z,99531.78
2022-11-16T07:20:15.114Z,99520.47
2022-11-16T07:23:19.900Z,99522.63
2022-11-16T07:26:23.102Z,99516.50
2022-11-16T07:29:26.526Z,99527.69
2022-11-16T07:32:35.602Z,99521.75
2022-11-16T07:35:38.351Z,99517.56
2022-11-16T07:38:40.945Z,99514.41
2022-11-16T07:41:45.011Z,99513.97
2022-11-16T07:44:47.654Z,99517.50
2022-11-16T07:47:52.402Z,99504.38
2022-11-16T07:50:59.921Z,99506.19
2022-11-16T07:54:02.542Z,99508.53
2022-11-16T07:57:04.723Z,99509.22
2022-11-16T08:00:08.352Z,99504.16
2022-11-16T08:03:18.201Z,99492.03
2022-11-16T08:06:27.258Z,99485.56
2022-11-16T08:09:29.875Z,99484.34
2022-11-16T08:12:33.500Z,99482.75
2022-11-16T08:15:36.158Z,99480.00
2022-11-16T08:18:40.374Z,99482.28
2022-11-16T08:21:42.814Z,99482.97
2022-11-16T08:24:45.426Z,99487.75
2022-11-16T08:27:47.876Z,99485.66
2022-11-16T08:30:53.979Z,99486.44
2022-11-16T08:33:56.823Z,99480.34
2022-11-16T08:36:59.708Z,99482.75
2022-11-16T08:40:03.590Z,99484.03
2022-11-16T08:43:08.301Z,99480.47
2022-11-16T08:46:11.296Z,99485.53
2022-11-16T08:49:14.434Z,99479.56
2022-11-16T08:52:16.978Z,99474.84
2022-11-16T08:55:19.809Z,99470.53
2022-11-16T08:58:22.528Z,99484.34
2022-11-16T09:01:26.638Z,99476.88
2022-11-16T09:04:32.741Z,99479.84
2022-11-16T09:07:39.792Z,99473.31
2022-11-16T09:10:42.595Z,99457.00
2022-11-16T09:13:45.759Z,99456.38
2022-11-16T09:16:47.938Z,99459.75
2022-11-16T09:19:50.415Z,99450.72
2022-11-16T09:22:52.622Z,99454.38
2022-11-16T09:25:55.110Z,99457.84
2022-11-16T09:28:58.915Z,99453.63
2022-11-16T09:32:02.233Z,99452.09
2022-11-16T09:35:04.554Z,99457.34
2022-11-16T09:38:09.884Z,99455.47
2022-11-16T09:41:15.173Z,99451.84
2022-11-16T09:44:44.890Z,99449.50
2022-11-16T09:47:51.787Z,99445.25
2022-11-16T09:50:57.304Z,99433.88
2022-11-16T09:54:08.554Z,99420.56
2022-11-16T09:57:13.235Z,99423.13
2022-11-16T10:00:18.077Z,99426.72
2022-11-16T10:03:20.626Z,99421.03
2022-11-16T10:06:28.732Z,99416.81
2022-11-16T10:09:31.285Z,99413.06
2022-11-16T10:12:37.936Z,99408.50
2022-11-16T10:15:52.859Z,99398.47
2022-11-16T10:19:19.972Z,99394.03
2022-11-16T10:22:34.547Z,99389.13
2022-11-16T10:25:49.365Z,99387.56
2022-11-16T10:29:11.048Z,99384.06
2022-11-16T10:32:19.719Z,99379.41
2022-11-16T10:35:45.626Z,99372.53
2022-11-16T10:38:48.216Z,99376.16
2022-11-16T10:41:50.905Z,99362.03
2022-11-16T10:45:05.951Z,99362.34
2022-11-16T10:48:21.214Z,99363.63
2022-11-16T10:51:23.505Z,99364.22
2022-11-16T10:54:26.137Z,99357.94
2022-11-16T10:57:48.294Z,99358.13
2022-11-16T11:00:51.820Z,99346.78
2022-11-16T11:03:54.317Z,99342.25
2022-11-16T11:07:19.661Z,99344.38
2022-11-16T11:10:28.235Z,99336.44
2022-11-16T11:13:30.836Z,99328.66
2022-11-16T11:16:33.278Z,99320.59
2022-11-16T11:19:35.750Z,99312.06
2022-11-16T11:22:49.485Z,99311.91
2022-11-16T11:25:54.013Z,99300.63
2022-11-16T11:28:56.910Z,99295.00
2022-11-16T11:32:07.945Z,99300.69
2022-11-16T11:35:21.882Z,99292.75
2022-11-16T11:38:25.421Z,99300.31
2022-11-16T11:41:34.430Z,99294.50
2022-11-16T11:44:37.171Z,99292.19
2022-11-16T11:47:57.391Z,99278.47
2022-11-16T11:51:10.228Z,99280.28
2022-11-16T11:54:15.231Z,99281.59
2022-11-16T11:57:22.091Z,99270.03
2022-11-16T12:00:26.130Z,99271.88
2022-11-16T12:03:42.202Z,99268.72
2022-11-16T12:06:52.087Z,99276.72
2022-11-16T12:10:11.557Z,99273.91
2022-11-16T12:13:13.865Z,99269.19
2022-11-16T12:16:27.484Z,99261.34
2022-11-16T12:19:45.865Z,99261.56
2022-11-16T12:23:06.624Z,99263.38
2022-11-16T12:26:31.436Z,99264.72
2022-11-16T12:29:44.725Z,99262.34
2022-11-16T12:32:59.142Z,99260.66
2022-11-16T12:36:06.263Z,99266.59
2022-11-16T12:39:17.301Z,99259.03
2022-11-16T12:42:35.212Z,99260.38
2022-11-16T12:45:45.766Z,99246.69
2022-11-16T12:48:54.443Z,99248.44
2022-11-16T12:52:15.774Z,99244.59
2022-11-16T12:55:41.399Z,99241.03
2022-11-16T12:58:50.615Z,99240.22
2022-11-16T13:02:00.791Z,99235.25
2022-11-16T13:05:05.431Z,99231.84
2022-11-16T13:08:13.241Z,99239.34
2022-11-16T13:11:18.616Z,99239.75
2022-11-16T13:14:24.851Z,99241.59
2022-11-16T13:17:36.686Z,99237.44
2022-11-16T13:20:45.482Z,99237.31
2022-11-16T13:23:53.986Z,99234.41
2022-11-16T13:27:17.414Z,99236.41
2022-11-16T13:30:21.482Z,99233.00
2022-11-16T13:33:30.900Z,99228.53
2022-11-16T13:36:43.289Z,99229.31
2022-11-16T13:39:57.772Z,99225.88
2022-11-16T13:42:59.949Z,99221.63
2022-11-16T13:46:02.804Z,99226.38
2022-11-16T13:49:04.966Z,99225.06
2022-11-16T13:52:23.082Z,99229.38
2022-11-16T13:55:33.553Z,99219.00
2022-11-16T13:58:37.907Z,99222.25
2022-11-16T14:01:57.605Z,99219.56
2022-11-16T14:05:01.062Z,99222.16
2022-11-16T14:08:18.780Z,99208.47
2022-11-16T14:11:39.872Z,99218.63
2022-11-16T14:15:03.635Z,99212.34
2022-11-16T14:18:09.234Z,99213.47
2022-11-16T14:21:14.950Z,99207.44
2022-11-16T14:24:25.758Z,99209.28
2022-11-16T14:27:38.696Z,99205.53
2022-11-16T14:30:47.230Z,99200.72
2022-11-16T14:33:51.272Z,99198.13
2022-11-16T14:36:56.097Z,99196.44
2022-11-16T14:40:17.644Z,99195.59
2022-11-16T14:43:40.671Z,99187.94
2022-11-16T14:46:43.625Z,99194.97
2022-11-16T14:49:47.007Z,99193.34
2022-11-16T14:52:51.286Z,99190.53
2022-11-16T14:56:07.629Z,99193.00
2022-11-16T14:59:16.156Z,99195.72
2022-11-16T15:02:27.324Z,99192.37
2022-11-16T15:05:32.928Z,99184.47
2022-11-16T15:08:42.877Z,99184.69
2022-11-16T15:12:06.139Z,99177.09
2022-11-16T15:15:08.679Z,99170.87
2022-11-16T15:18:13.018Z,99175.16
2022-11-16T15:21:22.663Z,99166.56
2022-11-16T15:24:30.869Z,99171.94
2022-11-16T15:27:36.641Z,99166.78
2022-11-16T15:30:40.280Z,99172.91
2022-11-16T15:33:44.043Z,99172.06
2022-11-16T15:36:46.622Z,99156.41
2022-11-16T15:39:49.247Z,99165.47
2022-11-16T15:42:53.229Z,99164.50
2022-11-16T15:45:55.868Z,99155.78
2022-11-16T15:48:58.792Z,99160.00
2022-11-16T15:52:01.627Z,99154.87
2022-11-16T15:55:03.938Z,99162.75
2022-11-16T15:58:06.424Z,99150.88
2022-11-16T16:01:09.806Z,99162.97
2022-11-16T16:04:16.291Z,99166.88
2022-11-16T16:07:37.565Z,99164.16
2022-11-16T16:10:40.175Z,99154.75
2022-11-16T16:13:43.667Z,99148.81
2022-11-16T16:16:49.398Z,99139.25
2022-11-16T16:19:56.372Z,99147.03
2022-11-16T16:23:09.754Z,99152.22
2022-11-16T16:26:12.203Z,99155.59
2022-11-16T16:29:14.704Z,99146.13
2022-11-16T16:32:27.466Z,99150.69
2022-11-16T16:35:30.066Z,99147.44
2022-11-16T16:38:32.639Z,99152.63
2022-11-16T16:41:35.106Z,99152.50
2022-11-16T16:44:37.500Z,99144.44
2022-11-16T16:47:39.952Z,99149.03
2022-11-16T16:50:42.266Z,99141.28
2022-11-16T16:53:44.771Z,99142.91
2022-11-16T16:56:48.226Z,99135.00
2022-11-16T16:59:50.915Z,99140.09
2022-11-16T17:02:53.643Z,99143.53
2022-11-16T17:05:59.449Z,99143.75
2022-11-16T17:09:01.953Z,99145.63
2022-11-16T17:12:04.519Z,99139.63
2022-11-16T17:15:07.008Z,99135.91
2022-11-16T17:18:09.749Z,99137.09
2022-11-16T17:21:11.985Z,99132.75
2022-11-16T17:24:14.527Z,99131.91
2022-11-16T17:27:16.698Z,99128.12
2022-11-16T17:30:19.209Z,99124.13
2022-11-16T17:33:21.407Z,99127.50
2022-11-16T17:36:23.889Z,99127.50
2022-11-16T17:39:26.123Z,99123.44
2022-11-16T17:42:28.655Z,99122.47
2022-11-16T17:45:30.916Z,99120.44
2022-11-16T17:48:34.257Z,99122.47
2022-11-16T17:51:36.622Z,99124.13
2022-11-16T17:54:39.199Z,99116.53
2022-11-16T17:57:41.402Z,99114.91
2022-11-16T18:00:43.977Z,99118.59
2022-11-16T18:03:46.469Z,99120.34
2022-11-16T18:06:48.725Z,99114.41
2022-11-16T18:09:51.269Z,99115.38
2022-11-16T18:12:53.515Z,99110.28
2022-11-16T18:16:01.487Z,99109.22
2022-11-16T18:19:05.257Z,99109.13
2022-11-16T18:22:07.753Z,99106.63
2022-11-16T18:25:10.764Z,99105.78
2022-11-16T18:28:13.201Z,99111.13
2022-11-16T18:31:17.869Z,99101.87
2022-11-16T18:34:20.356Z,99103.56
2022-11-16T18:37:22.528Z,99103.59
2022-11-16T18:40:25.022Z,99104.38
2022-11-16T18:43:27.321Z,99095.00
2022-11-16T18:46:31.243Z,99097.31
2022-11-16T18:49:33.549Z,99095.69
2022-11-16T18:52:36.183Z,99097.56
2022-11-16T18:55:38.465Z,99100.03
2022-11-16T18:58:51.533Z,99104.25
2022-11-16T19:01:54.840Z,99108.66
2022-11-16T19:04:57.323Z,99104.25
2022-11-16T19:07:59.604Z,99102.41
2022-11-16T19:11:06.449Z,99103.25
2022-11-16T19:14:08.722Z,99106.63
2022-11-16T19:17:11.468Z,99096.00
2022-11-16T19:20:13.884Z,99097.94
2022-11-16T19:23:16.497Z,99098.16
2022-11-16T19:26:19.585Z,99097.31
2022-11-16T19:29:22.117Z,99097.38
2022-11-16T19:32:24.750Z,99095.84
2022-11-16T19:35:27.229Z,99096.56
2022-11-16T19:38:29.665Z,99094.78
2022-11-16T19:41:32.471Z,99092.91
2022-11-16T19:44:34.640Z,99088.56
2022-11-16T19:47:37.175Z,99087.59
2022-11-16T19:50:39.337Z,99077.47
2022-11-16T19:53:42.537Z,99079.44
2022-11-16T19:56:49.347Z,99081.97
2022-11-16T19:59:54.683Z,99080.25
2022-11-16T20:02:57.654Z,99080.41
2022-11-16T20:06:04.238Z,99087.56
2022-11-16T20:09:11.339Z,99081.25
2022-11-16T20:12:14.129Z,99079.84
2022-11-16T20:15:16.423Z,99078.63
2022-11-16T20:18:18.972Z,99079.72
2022-11-16T20:21:25.853Z,99082.44
2022-11-16T20:24:28.379Z,99085.69
2022-11-16T20:27:30.569Z,99084.84
2022-11-16T20:30:33.131Z,99079.37
2022-11-16T20:33:35.829Z,99081.75
2022-11-16T20:36:38.492Z,99087.44
2022-11-16T20:39:41.938Z,99091.19
2022-11-16T20:42:44.378Z,99072.25
2022-11-16T20:45:51.391Z,99063.53
2022-11-16T20:48:55.879Z,99067.34
2022-11-16T20:51:58.166Z,99060.41
2022-11-16T20:55:00.714Z,99057.03
2022-11-16T20:58:02.926Z,99061.47
2022-11-16T21:01:06.656Z,99056.50
2022-11-16T21:04:10.840Z,99064.37
2022-11-16T21:07:14.021Z,99071.16
2022-11-16T21:10:19.210Z,99069.34
2022-11-16T21:13:40.150Z,99065.72
2022-11-16T21:16:42.620Z,99062.44
2022-11-16T21:19:59.728Z,99060.41
2022-11-16T21:23:07.307Z,99059.50
2022-11-16T21:26:14.061Z,99060.19
2022-11-16T21:29:16.283Z,99058.78
2022-11-16T21:32:18.824Z,99054.16
2022-11-16T21:35:21.276Z,99048.06
2022-11-16T21:38:27.707Z,99050.44
2022-11-16T21:41:30.105Z,99040.63
2022-11-16T21:44:41.899Z,99034.97
2022-11-16T21:47:44.129Z,99034.41
2022-11-16T21:50:46.603Z,99029.59
2022-11-16T21:53:48.875Z,99026.34
2022-11-16T21:56:51.371Z,99018.41
2022-11-16T21:59:53.659Z,99010.66
2022-11-16T22:02:56.067Z,99011.72
2022-11-16T22:06:18.813Z,99005.53
2022-11-16T22:09:21.265Z,99010.44
2022-11-16T22:12:23.752Z,99004.47
2022-11-16T22:15:25.966Z,99016.13
2022-11-16T22:18:29.607Z,99018.84
2022-11-16T22:21:31.779Z,99020.09
2022-11-16T22:24:34.219Z,99008.34
2022-11-16T22:27:58.464Z,99012.91
2022-11-16T22:31:03.072Z,99022.59
2022-11-16T22:34:05.452Z,99032.56
2022-11-16T22:37:08.071Z,99041.31
2022-11-16T22:40:14.968Z,99049.94
2022-11-16T22:43:20.751Z,99035.44
2022-11-16T22:46:23.020Z,99037.91
2022-11-16T22:49:25.719Z,99033.97
2022-11-16T22:52:28.151Z,99034.63
2022-11-16T22:55:30.849Z,99025.94
2022-11-16T22:58:33.225Z,99026.81
2022-11-16T23:01:36.674Z,99022.78
2022-11-16T23:04:38.878Z,99022.91
2022-11-16T23:07:43.877Z,99019.91
2022-11-16T23:11:04.832Z,99025.00
2022-11-16T23:14:28.143Z,99022.16
2022-11-16T23:17:30.346Z,99016.66
2022-11-16T23:20:53.190Z,99015.41
2022-11-16T23:24:24.151Z,99010.44
2022-11-16T23:27:31.731Z,98994.69
2022-11-16T23:30:34.437Z,99007.47
2022-11-16T23:33:46.128Z,99009.41
2022-11-16T23:36:48.258Z,99000.31
2022-11-16T23:39:50.667Z,99002.06
2022-11-16T23:43:11.538Z,99005.25
2022-11-16T23:46:13.946Z,99015.03
2022-11-16T23:49:16.220Z,99017.44
2022-11-16T23:52:18.646Z,99018.50
2022-11-16T23:55:23.048Z,99015.84
2022-11-16T23:58:25.577Z,99006.47
